Time;durP1;ratioP1;P1;durP2;ratioP2;P2;SDS_P1;SDS_P2;PMS_P1;PMS_P2;Temp;Humidity;BMP_temperature;BMP_pressure;BME280_temperature;BME280_humidity;BME280_pressure;Samples;Min_cycle;Max_cycle;Signal;HPM_P1;HPM_P2
2021/07/04 00:01:12;;;;;;;;;;;;;;;16.33;100.00;98486.80;1725140;82;20849;-63
2021/07/04 00:03:38;;;;;;;15.80;11.93;;;;;;;16.39;100.00;98488.23;1721163;82;21284;-62
2021/07/04 00:06:05;;;;;;;13.58;11.40;;;;;;;16.46;100.00;98486.66;1733122;82;20973;-62
2021/07/04 00:08:32;;;;;;;18.30;11.28;;;;;;;16.51;100.00;98482.97;1732270;82;20936;-63
2021/07/04 00:11:01;;;;;;;13.45;11.48;;;;;;;16.54;100.00;98478.86;1725754;82;21080;-62
2021/07/04 00:13:29;;;;;;;13.78;12.30;;;;;;;16.55;100.00;98482.58;1747376;81;20929;-63
2021/07/04 00:15:55;;;;;;;15.03;11.43;;;;;;;16.57;100.00;98480.92;1740025;82;21350;-62
2021/07/04 00:18:25;;;;;;;14.63;11.15;;;;;;;16.55;100.00;98480.44;1722878;82;20821;-62
2021/07/04 00:20:53;;;;;;;16.15;10.98;;;;;;;16.54;100.00;98474.80;1739803;82;20900;-61
2021/07/04 00:23:19;;;;;;;12.98;11.73;;;;;;;16.50;100.00;98475.41;1737252;81;21477;-61
2021/07/04 00:25:47;;;;;;;12.37;10.98;;;;;;;16.48;100.00;98470.87;1739029;81;20917;-62
2021/07/04 00:28:14;;;;;;;16.02;11.48;;;;;;;16.43;100.00;98472.38;1727917;81;21888;-61
2021/07/04 00:30:42;;;;;;;15.18;11.90;;;;;;;16.39;100.00;98473.33;1736789;82;21135;-62
2021/07/04 00:33:10;;;;;;;25.70;12.13;;;;;;;16.33;100.00;98474.05;1721087;81;21029;-61
2021/07/04 00:35:37;;;;;;;17.40;12.25;;;;;;;16.29;100.00;98472.55;1731992;82;20920;-62
2021/07/04 00:38:06;;;;;;;17.37;12.20;;;;;;;16.25;100.00;98472.94;1742110;82;20921;-62
2021/07/04 00:40:33;;;;;;;12.60;11.22;;;;;;;16.20;100.00;98475.80;1720185;82;21438;-62
2021/07/04 00:43:01;;;;;;;21.30;12.58;;;;;;;16.16;100.00;98473.48;1723981;82;21412;-61
2021/07/04 00:45:27;;;;;;;16.35;12.07;;;;;;;16.16;100.00;98478.10;1745583;82;20968;-62
2021/07/04 00:47:54;;;;;;;21.82;11.97;;;;;;;16.13;100.00;98478.74;1732583;82;20908;-64
2021/07/04 00:50:25;;;;;;;17.92;11.83;;;;;;;16.11;100.00;98479.61;1737598;81;20952;-62
2021/07/04 00:52:53;;;;;;;18.87;13.50;;;;;;;16.08;100.00;98477.77;1733349;82;21112;-62
2021/07/04 00:55:22;;;;;;;16.50;12.80;;;;;;;16.08;100.00;98479.13;1736960;82;21363;-62
2021/07/04 00:57:51;;;;;;;16.07;13.00;;;;;;;16.07;100.00;98476.75;1732508;82;21372;-61
2021/07/04 01:00:21;;;;;;;13.08;11.70;;;;;;;16.06;100.00;98472.44;1732358;81;20968;-62
2021/07/04 01:02:48;;;;;;;16.07;14.00;;;;;;;16.00;100.00;98477.77;1731035;82;20949;-62
2021/07/04 01:05:17;;;;;;;14.83;12.90;;;;;;;16.00;100.00;98476.42;1741534;81;21182;-61
2021/07/04 01:07:45;;;;;;;29.35;13.00;;;;;;;15.99;100.00;98479.66;1740781;82;22318;-61
2021/07/04 01:10:16;;;;;;;15.43;12.55;;;;;;;15.96;100.00;98476.23;1734771;82;25081;-62
2021/07/04 01:12:49;;;;;;;17.90;12.93;;;;;;;15.94;100.00;98481.73;1720479;82;21410;-61
2021/07/04 01:15:19;;;;;;;18.37;13.68;;;;;;;15.90;100.00;98480.22;1734367;82;20952;-62
2021/07/04 01:17:47;;;;;;;17.15;11.95;;;;;;;15.89;100.00;98486.73;1730475;82;21679;-62
2021/07/04 01:20:19;;;;;;;14.65;13.15;;;;;;;15.86;100.00;98481.95;1723402;82;21185;-61
2021/07/04 01:23:08;;;;;;;20.12;12.58;;;;;;;15.84;100.00;98477.41;1730272;81;20929;-62
2021/07/04 01:25:43;;;;;;;17.27;12.95;;;;;;;15.82;100.00;98468.80;1734981;82;20885;-61
2021/07/04 01:28:11;;;;;;;13.32;11.70;;;;;;;15.78;100.00;98475.41;1738597;82;20865;-62
2021/07/04 01:30:40;;;;;;;19.77;12.58;;;;;;;15.76;100.00;98478.19;1736555;82;21457;-61
2021/07/04 01:33:08;;;;;;;18.02;11.48;;;;;;;15.77;100.00;98482.47;1743037;82;21513;-62
2021/07/04 01:35:34;;;;;;;15.35;12.82;;;;;;;15.73;100.00;98472.85;1730561;82;21028;-61
2021/07/04 01:38:01;;;;;;;17.48;12.58;;;;;;;15.69;100.00;98469.14;1721095;82;21430;-61
2021/07/04 01:40:30;;;;;;;24.65;13.13;;;;;;;15.65;100.00;98469.52;1736365;81;21040;-61
2021/07/04 01:42:58;;;;;;;21.37;14.10;;;;;;;15.65;100.00;98467.63;1721385;82;21118;-62
2021/07/04 01:45:26;;;;;;;23.20;12.88;;;;;;;15.62;100.00;98465.53;1743449;82;20866;-61
2021/07/04 01:47:54;;;;;;;;;;;;;;;15.59;100.00;98464.81;1732699;82;21453;-62
2021/07/04 01:50:31;;;;;;;16.52;12.75;;;;;;;15.58;100.00;98464.58;1726298;82;20091;-63
2021/07/04 01:52:58;;;;;;;16.27;12.37;;;;;;;15.59;100.00;98466.72;1711832;82;20928;-63
2021/07/04 01:55:26;;;;;;;14.80;12.78;;;;;;;15.56;100.00;98458.69;1748654;81;21114;-62
2021/07/04 01:57:53;;;;;;;17.55;13.50;;;;;;;15.57;100.00;98464.88;1730065;82;21453;-62
2021/07/04 02:00:25;;;;;;;17.10;13.13;;;;;;;15.56;100.00;98468.15;1740071;81;21426;-62
2021/07/04 02:02:55;;;;;;;17.32;12.18;;;;;;;15.53;100.00;98461.20;1735601;82;20952;-62
2021/07/04 02:05:23;;;;;;;21.87;13.72;;;;;;;15.49;100.00;98465.66;1738340;81;20977;-61
2021/07/04 02:07:51;;;;;;;20.72;12.98;;;;;;;15.45;100.00;98457.36;1744753;81;26537;-61
2021/07/04 02:10:24;;;;;;;17.75;13.10;;;;;;;15.41;100.00;98465.31;1726560;82;21521;-61
2021/07/04 02:12:51;;;;;;;28.17;15.08;;;;;;;15.42;100.00;98464.19;1731872;81;21028;-60
2021/07/04 02:15:26;;;;;;;22.65;14.53;;;;;;;15.41;100.00;98463.16;1734701;81;20956;-61
2021/07/04 02:17:56;;;;;;;22.65;14.38;;;;;;;15.41;100.00;98463.95;1739575;81;20920;-62
2021/07/04 02:20:48;;;;;;;16.32;13.45;;;;;;;15.44;100.00;98463.89;1720756;81;21196;-58
2021/07/04 02:23:30;;;;;;;21.77;14.38;;;;;;;15.47;100.00;98455.70;1727134;82;20912;-63
2021/07/04 02:26:06;;;;;;;16.65;12.80;;;;;;;15.52;100.00;98453.65;1721796;81;20900;-61
2021/07/04 02:28:34;;;;;;;15.95;13.18;;;;;;;15.59;100.00;98459.96;1714282;81;20909;-61
2021/07/04 02:31:04;;;;;;;15.30;12.82;;;;;;;15.63;100.00;98464.44;1722735;82;21379;-60
2021/07/04 02:33:32;;;;;;;22.58;13.58;;;;;;;15.66;100.00;98471.13;1711231;82;21117;-61
2021/07/04 02:36:00;;;;;;;16.17;12.28;;;;;;;15.67;100.00;98469.21;1742930;82;20971;-61
2021/07/04 02:38:27;;;;;;;19.95;13.30;;;;;;;15.68;100.00;98475.67;1736153;81;21873;-61
2021/07/04 02:40:55;;;;;;;22.13;14.15;;;;;;;15.70;100.00;98473.45;1746285;81;20905;-60
2021/07/04 02:43:24;;;;;;;18.98;12.15;;;;;;;15.74;100.00;98484.46;1723577;82;23963;-60
2021/07/04 02:45:52;;;;;;;20.68;13.15;;;;;;;15.78;100.00;98482.73;1734756;81;21111;-60
2021/07/04 02:48:20;;;;;;;16.85;13.13;;;;;;;15.80;100.00;98481.84;1739848;82;21054;-60
2021/07/04 02:50:53;;;;;;;16.87;12.98;;;;;;;15.83;100.00;98484.73;1746501;81;20833;-61
2021/07/04 02:53:21;;;;;;;15.38;11.75;;;;;;;15.87;100.00;98479.47;1737898;81;20874;-60
2021/07/04 02:55:51;;;;;;;20.77;13.03;;;;;;;15.93;100.00;98484.20;1733151;82;21434;-60
2021/07/04 02:58:18;;;;;;;16.65;13.00;;;;;;;15.97;100.00;98488.67;1743010;82;21123;-59
2021/07/04 03:00:45;;;;;;;17.20;12.00;;;;;;;16.04;100.00;98499.02;1742222;82;20862;-60
2021/07/04 03:03:14;;;;;;;15.95;12.88;;;;;;;16.08;100.00;98496.72;1742700;82;21502;-61
2021/07/04 03:05:43;;;;;;;15.48;12.13;;;;;;;16.14;100.00;98492.51;1724411;82;20897;-61
2021/07/04 03:08:09;;;;;;;28.47;13.30;;;;;;;16.17;100.00;98494.04;1721336;82;21310;-60
2021/07/04 03:10:36;;;;;;;19.05;13.15;;;;;;;16.23;100.00;98496.03;1698463;82;21124;-60
2021/07/04 03:13:03;;;;;;;15.75;11.43;;;;;;;16.31;100.00;98510.13;1740784;82;20905;-60
2021/07/04 03:15:31;;;;;;;;;;;;;;;16.47;100.00;98511.83;1740728;81;20912;-60
2021/07/04 03:18:00;;;;;;;20.90;12.65;;;;;;;16.62;100.00;98511.91;1729483;81;20139;-61
2021/07/04 03:20:28;;;;;;;;;;;;;;;16.63;100.00;98521.05;1737066;82;20923;-60
2021/07/04 03:22:57;;;;;;;20.95;13.50;;;;;;;16.70;100.00;98515.16;1739451;82;21136;-60
2021/07/04 03:25:24;;;;;;;17.48;14.18;;;;;;;16.75;100.00;98520.42;1737719;81;21485;-60
2021/07/04 03:27:51;;;;;;;18.17;14.53;;;;;;;16.81;100.00;98523.25;1734240;81;20908;-61
2021/07/04 03:30:21;;;;;;;29.15;16.82;;;;;;;16.84;100.00;98527.23;1746917;82;21359;-61
2021/07/04 03:32:51;;;;;;;21.35;15.23;;;;;;;16.86;100.00;98523.66;1740698;82;20901;-60
2021/07/04 03:35:19;;;;;;;21.07;15.93;;;;;;;16.87;100.00;98523.31;1741823;82;21113;-61
2021/07/04 03:37:48;;;;;;;24.70;16.02;;;;;;;16.83;100.00;98525.09;1739403;82;21007;-62
2021/07/04 03:40:18;;;;;;;28.20;17.87;;;;;;;16.84;100.00;98526.67;1731941;82;20968;-60
2021/07/04 03:42:47;;;;;;;22.93;17.27;;;;;;;16.87;100.00;98535.51;1713460;82;21673;-60
2021/07/04 03:45:14;;;;;;;;;;;;;;;16.90;100.00;98531.36;1735180;82;21455;-60
2021/07/04 03:47:43;;;;;;;34.13;17.73;;;;;;;17.01;100.00;98533.99;1718667;81;21123;-60
2021/07/04 03:50:12;;;;;;;45.75;19.80;;;;;;;17.06;100.00;98538.45;1729023;82;20932;-59
2021/07/04 03:52:41;;;;;;;25.80;17.82;;;;;;;17.11;100.00;98543.14;1738108;82;20920;-59
2021/07/04 03:55:11;;;;;;;25.37;17.05;;;;;;;17.14;100.00;98545.20;1734102;82;21426;-59
2021/07/04 03:57:41;;;;;;;39.15;18.57;;;;;;;17.15;100.00;98548.73;1728719;82;20849;-59
2021/07/04 04:00:12;;;;;;;54.60;17.52;;;;;;;17.20;100.00;98543.14;1730448;82;21124;-60
2021/07/04 04:02:46;;;;;;;48.50;18.42;;;;;;;17.20;100.00;98543.14;1723905;81;21274;-59
2021/07/04 04:05:14;;;;;;;;;;;;;;;17.24;100.00;98537.86;1739591;81;20924;-59
2021/07/04 04:07:44;;;;;;;66.75;15.95;;;;;;;17.35;100.00;98538.55;1744108;81;20095;-60
2021/07/04 04:10:13;;;;;;;;;;;;;;;17.38;100.00;98541.17;1740226;81;20893;-60
2021/07/04 04:12:41;;;;;;;36.10;15.63;;;;;;;17.29;100.00;98541.19;1744795;81;21133;-60
2021/07/04 04:15:10;;;;;;;52.40;15.88;;;;;;;17.29;100.00;98543.90;1735020;81;21603;-60
2021/07/04 04:17:38;;;;;;;50.15;16.95;;;;;;;17.43;100.00;98551.85;1749159;81;21410;-60
2021/07/04 04:20:08;;;;;;;19.80;15.90;;;;;;;17.49;100.00;98545.15;1742741;81;21477;-60
2021/07/04 04:22:36;;;;;;;22.13;15.45;;;;;;;17.51;100.00;98551.02;1711440;81;21347;-61
2021/07/04 04:25:08;;;;;;;22.98;15.75;;;;;;;17.46;100.00;98548.48;1747617;81;21272;-60
2021/07/04 04:27:36;;;;;;;53.25;17.42;;;;;;;17.43;100.00;98547.78;1728907;82;20915;-60
2021/07/04 04:30:06;;;;;;;32.95;17.27;;;;;;;17.43;100.00;98549.70;1730295;82;20969;-60
2021/07/04 04:32:33;;;;;;;25.43;17.00;;;;;;;17.51;100.00;98557.80;1714614;82;20901;-60
2021/07/04 04:35:01;;;;;;;28.87;16.90;;;;;;;17.54;100.00;98550.39;1747100;81;20984;-60
2021/07/04 04:37:29;;;;;;;;;;;;;;;17.62;100.00;98563.70;1731158;82;21111;-61
2021/07/04 04:39:57;;;;;;;22.80;16.25;;;;;;;17.74;100.00;98561.09;1738469;82;20103;-60
2021/07/04 04:42:24;;;;;;;27.07;16.07;;;;;;;17.94;100.00;98559.60;1745655;82;20987;-60
2021/07/04 04:44:51;;;;;;;18.98;14.03;;;;;;;18.07;100.00;98561.84;1726440;82;20881;-60
2021/07/04 04:47:17;;;;;;;19.82;14.83;;;;;;;18.14;100.00;98553.98;1740045;82;21001;-60
2021/07/04 04:49:44;;;;;;;21.68;15.78;;;;;;;18.13;100.00;98563.27;1743319;81;21117;-60
2021/07/04 04:52:12;;;;;;;21.68;16.02;;;;;;;18.05;100.00;98561.95;1739795;82;21024;-60
2021/07/04 04:54:39;;;;;;;21.27;16.62;;;;;;;18.03;100.00;98562.29;1734853;81;20841;-60
2021/07/04 04:57:06;;;;;;;22.65;15.45;;;;;;;18.12;100.00;98554.88;1726053;82;20905;-60
2021/07/04 04:59:34;;;;;;;34.10;14.65;;;;;;;18.19;100.00;98549.72;1744277;81;20969;-60
2021/07/04 05:02:04;;;;;;;22.80;16.52;;;;;;;18.28;100.00;98550.25;1741588;82;21173;-60
2021/07/04 05:04:30;;;;;;;19.07;15.23;;;;;;;18.31;100.00;98553.09;1746044;81;20975;-59
2021/07/04 05:06:56;;;;;;;18.17;14.78;;;;;;;18.48;100.00;98552.76;1744626;81;21350;-59
2021/07/04 05:09:24;;;;;;;25.50;17.70;;;;;;;18.69;100.00;98549.49;1737788;81;21096;-60
2021/07/04 05:11:51;;;;;;;27.05;18.80;;;;;;;18.83;100.00;98554.09;1737820;82;20993;-59
2021/07/04 05:14:18;;;;;;;20.68;16.65;;;;;;;18.80;100.00;98555.34;1736398;82;21109;-60
2021/07/04 05:16:45;;;;;;;25.53;17.63;;;;;;;18.73;100.00;98555.83;1736604;82;21521;-59
2021/07/04 05:19:12;;;;;;;23.52;17.82;;;;;;;18.83;100.00;98561.46;1730104;81;20893;-60
2021/07/04 05:21:41;;;;;;;22.75;17.55;;;;;;;18.76;100.00;98567.42;1729600;81;20953;-60
2021/07/04 05:24:09;;;;;;;25.60;19.30;;;;;;;18.82;100.00;98568.04;1711274;82;20948;-59
2021/07/04 05:26:35;;;;;;;29.57;20.43;;;;;;;18.81;100.00;98573.23;1711209;82;21183;-60
2021/07/04 05:29:02;;;;;;;27.55;19.23;;;;;;;18.83;100.00;98579.13;1722590;82;20865;-60
2021/07/04 05:31:29;;;;;;;26.85;19.70;;;;;;;18.75;100.00;98571.82;1724836;82;21501;-59
2021/07/04 05:33:55;;;;;;;23.65;20.35;;;;;;;18.71;100.00;98579.03;1729020;82;20856;-59
2021/07/04 05:36:22;;;;;;;21.75;17.87;;;;;;;18.72;100.00;98576.00;1732924;82;20963;-60
2021/07/04 05:39:03;;;;;;;19.73;17.20;;;;;;;18.80;100.00;98579.80;1720952;81;21324;-60
2021/07/04 05:41:29;;;;;;;19.67;16.02;;;;;;;18.92;100.00;98581.22;1706726;82;21565;-60
2021/07/04 05:43:55;;;;;;;19.57;16.75;;;;;;;18.93;100.00;98581.45;1721272;81;21066;-61
2021/07/04 05:46:22;;;;;;;19.98;16.62;;;;;;;18.97;100.00;98573.44;1736676;80;21079;-60
2021/07/04 05:48:49;;;;;;;20.43;16.73;;;;;;;18.87;100.00;98578.71;1724235;81;20968;-60
2021/07/04 05:51:16;;;;;;;22.50;18.33;;;;;;;18.77;100.00;98576.40;1718122;80;21101;-62
2021/07/04 05:53:42;;;;;;;21.00;18.07;;;;;;;18.71;100.00;98583.11;1713345;81;21809;-60
2021/07/04 05:56:09;;;;;;;21.23;17.42;;;;;;;18.73;100.00;98575.43;1737322;80;21067;-60
2021/07/04 05:58:35;;;;;;;22.82;18.10;;;;;;;18.83;100.00;98574.48;1737706;80;20961;-60
2021/07/04 06:01:02;;;;;;;22.50;17.23;;;;;;;18.98;100.00;98579.09;1731530;81;20980;-61
2021/07/04 06:03:28;;;;;;;26.23;18.87;;;;;;;19.13;100.00;98573.59;1728709;81;21725;-60
2021/07/04 06:05:55;;;;;;;22.75;18.80;;;;;;;19.09;100.00;98574.05;1717235;81;21366;-60
2021/07/04 06:08:21;;;;;;;17.67;15.60;;;;;;;18.96;100.00;98577.27;1721836;81;20915;-60
2021/07/04 06:10:51;;;;;;;23.70;18.70;;;;;;;19.02;100.00;98574.02;1722344;81;20951;-60
2021/07/04 06:13:18;;;;;;;20.55;17.70;;;;;;;19.08;100.00;98574.59;1718675;81;20958;-60
2021/07/04 06:15:46;;;;;;;23.50;18.52;;;;;;;19.20;100.00;98572.50;1726685;82;21320;-60
2021/07/04 06:18:12;;;;;;;25.08;18.60;;;;;;;19.29;100.00;98575.94;1723021;81;21113;-60
2021/07/04 06:20:39;;;;;;;24.18;18.02;;;;;;;19.29;100.00;98575.94;1717242;82;21237;-60
2021/07/04 06:23:05;;;;;;;19.52;16.52;;;;;;;19.33;100.00;98580.12;1713964;82;20981;-60
2021/07/04 06:25:33;;;;;;;;;;;;;;;19.33;100.00;98580.12;1721683;82;21019;-59
2021/07/04 06:28:00;;;;;;;24.55;19.07;;;;;;;19.37;100.00;98578.33;1722840;82;23314;-60
2021/07/04 06:30:26;;;;;;;22.77;18.27;;;;;;;19.40;100.00;98576.30;1726966;81;20887;-60
2021/07/04 06:32:53;;;;;;;25.23;20.12;;;;;;;19.28;100.00;98575.72;1714692;82;20939;-60
2021/07/04 06:35:19;;;;;;;23.12;19.05;;;;;;;19.24;100.00;98583.73;1717806;82;20927;-60
2021/07/04 06:37:46;;;;;;;29.63;20.72;;;;;;;19.20;100.00;98587.45;1711405;82;20944;-60
2021/07/04 06:40:14;;;;;;;29.90;22.05;;;;;;;19.22;100.00;98580.55;1713050;82;21826;-60
2021/07/04 06:42:40;;;;;;;;;;;;;;;19.27;100.00;98582.27;1723621;81;21302;-60
2021/07/04 06:45:10;;;;;;;25.20;18.87;;;;;;;19.29;100.00;98580.02;1715559;82;42494;-59
2021/07/04 06:47:41;;;;;;;18.23;15.30;;;;;;;19.29;100.00;98580.02;1724428;82;21039;-60
2021/07/04 06:50:11;;;;;;;19.12;16.35;;;;;;;19.53;100.00;98580.66;1732404;82;21002;-60
2021/07/04 06:52:38;;;;;;;21.65;17.25;;;;;;;19.62;100.00;98587.34;1708688;82;21101;-60
2021/07/04 06:55:07;;;;;;;24.40;16.80;;;;;;;19.56;100.00;98580.55;1696610;82;20989;-59
2021/07/04 06:57:34;;;;;;;19.85;15.83;;;;;;;19.57;100.00;98583.48;1694611;83;21430;-59
2021/07/04 07:00:12;;;;;;;23.62;17.32;;;;;;;19.57;100.00;98583.48;1690175;83;21022;-60
2021/07/04 07:02:39;;;;;;;22.40;17.40;;;;;;;19.52;100.00;98585.06;1704420;83;20970;-60
2021/07/04 07:05:10;;;;;;;21.60;16.32;;;;;;;19.58;100.00;98581.01;1699586;83;21662;-59
2021/07/04 07:07:36;;;;;;;21.77;16.55;;;;;;;19.70;100.00;98582.42;1684523;82;22108;-60
2021/07/04 07:10:07;;;;;;;22.07;17.45;;;;;;;19.83;100.00;98576.42;1713698;81;21000;-58
2021/07/04 07:12:33;;;;;;;20.27;18.07;;;;;;;19.83;100.00;98576.42;1724746;81;20996;-58
2021/07/04 07:15:01;;;;;;;21.82;17.57;;;;;;;19.89;100.00;98581.86;1737069;82;20945;-58
2021/07/04 07:17:28;;;;;;;23.95;17.45;;;;;;;19.94;100.00;98584.94;1714120;81;21184;-61
2021/07/04 07:19:56;;;;;;;22.67;19.00;;;;;;;19.90;100.00;98582.89;1733904;81;21008;-58
2021/07/04 07:22:24;;;;;;;22.32;17.30;;;;;;;19.85;100.00;98581.75;1727659;81;20977;-58
2021/07/04 07:24:51;;;;;;;21.37;17.75;;;;;;;19.80;100.00;98576.53;1715871;81;21048;-61
2021/07/04 07:27:18;;;;;;;19.90;17.65;;;;;;;19.90;100.00;98574.72;1706262;81;20890;-61
2021/07/04 07:29:45;;;;;;;20.45;17.20;;;;;;;19.94;100.00;98576.77;1717624;81;21056;-59
2021/07/04 07:32:13;;;;;;;19.77;16.80;;;;;;;20.01;100.00;98583.23;1713631;83;20886;-58
2021/07/04 07:34:39;;;;;;;19.92;16.73;;;;;;;20.06;100.00;98580.85;1703523;81;21175;-59
2021/07/04 07:37:08;;;;;;;22.17;16.73;;;;;;;20.17;100.00;98580.64;1693039;82;21092;-58
2021/07/04 07:39:37;;;;;;;23.90;17.60;;;;;;;20.21;100.00;98580.19;1704192;82;21047;-59
2021/07/04 07:42:05;;;;;;;24.65;19.00;;;;;;;20.19;100.00;98582.45;1699436;83;21806;-59
2021/07/04 07:44:32;;;;;;;19.60;17.50;;;;;;;20.13;100.00;98579.15;1733703;81;21036;-59
2021/07/04 07:47:04;;;;;;;19.07;15.72;;;;;;;20.06;100.00;98585.75;1715010;82;21012;-58
2021/07/04 07:49:31;;;;;;;19.85;15.95;;;;;;;20.09;100.00;98584.28;1697392;83;21023;-59
2021/07/04 07:51:59;;;;;;;21.00;15.28;;;;;;;20.26;100.00;98589.50;1700465;83;20961;-60
2021/07/04 07:54:31;;;;;;;19.37;16.17;;;;;;;20.32;100.00;98592.20;1701712;83;21079;-59
2021/07/04 07:57:01;;;;;;;18.25;16.35;;;;;;;20.32;100.00;98595.50;1715716;82;21120;-59
2021/07/04 07:59:26;;;;;;;17.40;15.32;;;;;;;20.31;100.00;98600.73;1727442;82;20921;-59
2021/07/04 08:01:53;;;;;;;18.73;16.73;;;;;;;20.30;100.00;98591.75;1734351;82;20886;-59
2021/07/04 08:04:20;;;;;;;17.70;15.85;;;;;;;20.30;100.00;98604.00;1740976;81;21004;-59
2021/07/04 08:06:46;;;;;;;16.75;14.60;;;;;;;20.35;100.00;98602.98;1746425;81;21354;-59
2021/07/04 08:09:14;;;;;;;17.17;15.35;;;;;;;20.35;100.00;98599.69;1740005;81;21041;-59
2021/07/04 08:11:44;;;;;;;16.65;14.15;;;;;;;20.27;100.00;98604.70;1738071;81;21486;-58
2021/07/04 08:14:41;;;;;;;19.50;15.40;;;;;;;20.23;100.00;98604.35;1698413;81;20989;-60
2021/07/04 08:17:09;;;;;;;17.73;15.25;;;;;;;20.29;100.00;98605.16;1687455;83;21544;-60
2021/07/04 08:19:36;;;;;;;20.08;15.50;;;;;;;20.48;100.00;98600.49;1681367;84;21143;-61
2021/07/04 08:22:03;;;;;;;19.82;16.17;;;;;;;20.57;100.00;98601.74;1699116;81;20948;-61
2021/07/04 08:24:30;;;;;;;19.60;16.95;;;;;;;20.60;100.00;98607.86;1682315;83;21009;-60
2021/07/04 08:26:58;;;;;;;20.88;17.12;;;;;;;20.66;100.00;98611.17;1705070;83;20897;-61
2021/07/04 08:29:25;;;;;;;19.70;16.67;;;;;;;20.69;100.00;98608.54;1707991;83;21065;-60
2021/07/04 08:31:52;;;;;;;18.23;15.88;;;;;;;20.73;100.00;98608.09;1690827;82;21119;-60
2021/07/04 08:34:19;;;;;;;16.10;14.40;;;;;;;20.83;100.00;98607.39;1669151;83;21187;-60
2021/07/04 08:36:47;;;;;;;18.45;14.87;;;;;;;21.00;100.00;98605.75;1691998;82;21478;-60
2021/07/04 08:39:14;;;;;;;17.07;14.60;;;;;;;21.10;100.00;98607.98;1703279;81;21004;-60
2021/07/04 08:41:41;;;;;;;18.48;15.38;;;;;;;21.16;100.00;98610.67;1692571;83;21415;-59
2021/07/04 08:44:10;;;;;;;17.45;14.18;;;;;;;21.23;100.00;98605.20;1685295;82;21544;-60
2021/07/04 08:46:43;;;;;;;16.00;14.20;;;;;;;21.29;100.00;98607.89;1686910;82;21384;-60
2021/07/04 08:49:10;;;;;;;15.88;12.93;;;;;;;21.33;100.00;98610.95;1696860;82;21367;-60
2021/07/04 08:51:37;;;;;;;18.85;14.87;;;;;;;21.56;100.00;98611.22;1686754;83;20917;-60
2021/07/04 08:54:03;;;;;;;19.52;14.07;;;;;;;21.71;100.00;98618.43;1693504;82;21004;-61
2021/07/04 08:56:30;;;;;;;15.30;13.70;;;;;;;21.79;100.00;98624.29;1702590;82;21811;-60
2021/07/04 08:58:56;;;;;;;17.00;14.47;;;;;;;21.67;100.00;98625.72;1719975;81;20985;-59
2021/07/04 09:01:25;;;;;;;17.75;14.83;;;;;;;21.65;100.00;98628.00;1722341;81;21074;-59
2021/07/04 09:04:11;;;;;;;19.55;15.35;;;;;;;21.45;100.00;98627.09;1727287;81;21119;-59
2021/07/04 09:06:43;;;;;;;18.98;14.23;;;;;;;21.30;100.00;98628.03;1719401;82;20853;-60
2021/07/04 09:09:30;;;;;;;15.20;13.40;;;;;;;21.34;100.00;98634.97;1718266;82;21189;-61
2021/07/04 09:12:09;;;;;;;15.77;14.07;;;;;;;21.46;100.00;98634.13;1727603;82;21063;-60
2021/07/04 09:14:46;;;;;;;17.82;15.25;;;;;;;21.52;100.00;98627.28;1731486;82;21477;-62
2021/07/04 09:17:16;;;;;;;15.60;13.90;;;;;;;21.77;100.00;98632.82;1727105;82;20987;-62
2021/07/04 09:19:57;;;;;;;17.40;14.18;;;;;;;22.15;100.00;98634.76;1717071;82;20864;-61
2021/07/04 09:22:34;;;;;;;14.93;13.32;;;;;;;22.62;100.00;98626.52;1725994;81;23276;-61
2021/07/04 09:25:19;;;;;;;16.75;13.18;;;;;;;23.05;100.00;98633.51;1726371;82;21429;-61
2021/07/04 09:28:12;;;;;;;16.62;13.00;;;;;;;23.18;100.00;98647.29;1706544;82;20987;-61
2021/07/04 09:30:49;;;;;;;16.75;14.05;;;;;;;23.19;100.00;98643.39;1727114;82;20963;-61
2021/07/04 09:33:23;;;;;;;;;;;;;;;23.10;100.00;98641.43;1721164;82;20972;-62
2021/07/04 09:36:06;;;;;;;15.68;12.85;;;;;;;23.01;100.00;98644.98;1706900;82;21200;-61
2021/07/04 09:38:43;;;;;;;14.78;11.85;;;;;;;22.94;100.00;98646.95;1717132;82;20888;-62
2021/07/04 09:41:13;;;;;;;14.20;12.30;;;;;;;23.06;100.00;98650.16;1729970;82;21472;-62
2021/07/04 09:43:40;;;;;;;14.25;12.78;;;;;;;23.08;100.00;98649.23;1727187;82;21124;-62
2021/07/04 09:46:09;;;;;;;14.13;12.73;;;;;;;23.07;100.00;98651.16;1723004;82;20990;-63
2021/07/04 09:48:42;;;;;;;14.18;12.68;;;;;;;22.98;100.00;98648.41;1722849;81;21566;-62
2021/07/04 09:51:23;;;;;;;16.57;12.55;;;;;;;23.17;100.00;98647.64;1711760;82;21438;-63
2021/07/04 09:53:57;;;;;;;15.85;12.07;;;;;;;23.47;100.00;98649.20;1718725;82;20896;-63
2021/07/04 09:56:33;;;;;;;13.18;11.15;;;;;;;23.77;100.00;98651.39;1719336;82;20889;-62
2021/07/04 09:59:02;;;;;;;15.88;13.03;;;;;;;23.85;100.00;98644.87;1718502;82;21067;-62
2021/07/04 10:01:45;;;;;;;13.93;12.00;;;;;;;23.98;100.00;98646.27;1720180;82;21735;-62
2021/07/04 10:04:35;;;;;;;13.98;12.55;;;;;;;24.24;100.00;98634.56;1729730;82;21564;-62
2021/07/04 10:07:00;;;;;;;13.80;12.40;;;;;;;24.08;100.00;98642.13;1721258;82;21009;-63
2021/07/04 10:09:29;;;;;;;18.73;15.95;;;;;;;24.43;100.00;98636.44;1727984;82;21038;-63
2021/07/04 10:11:56;;;;;;;13.30;11.80;;;;;;;24.92;100.00;98630.10;1725814;81;20867;-63
2021/07/04 10:14:22;;;;;;;11.87;10.67;;;;;;;25.72;100.00;98627.11;1711128;82;21774;-63
2021/07/04 10:16:51;;;;;;;13.58;10.90;;;;;;;25.99;100.00;98629.19;1712418;82;20860;-63
2021/07/04 10:19:26;;;;;;;11.22;9.85;;;;;;;25.83;100.00;98626.64;1729367;82;21417;-63
2021/07/04 10:22:02;;;;;;;11.12;9.93;;;;;;;25.74;100.00;98618.50;1713929;82;21600;-63
2021/07/04 10:24:29;;;;;;;12.25;11.05;;;;;;;25.53;100.00;98617.69;1712009;82;21359;-63
2021/07/04 10:26:57;;;;;;;11.83;10.40;;;;;;;25.54;100.00;98611.04;1723926;82;21116;-62
2021/07/04 10:29:27;;;;;;;16.05;11.50;;;;;;;25.73;100.00;98616.34;1710357;82;20907;-60
2021/07/04 10:32:09;;;;;;;14.10;11.48;;;;;;;25.55;100.00;98614.80;1719996;82;21123;-63
2021/07/04 10:34:48;;;;;;;14.10;10.50;;;;;;;25.38;100.00;98610.69;1692383;82;20971;-63
2021/07/04 10:37:18;;;;;;;12.50;10.28;;;;;;;24.95;100.00;98609.36;1727466;82;21147;-60
2021/07/04 10:39:45;;;;;;;14.65;10.58;;;;;;;24.78;100.00;98609.33;1719306;82;21341;-61
2021/07/04 10:42:12;;;;;;;10.82;9.73;;;;;;;24.97;100.00;98608.41;1673318;84;21094;-60
2021/07/04 10:44:49;;;;;;;12.03;9.25;;;;;;;25.67;100.00;98612.34;1714347;82;20932;-60
2021/07/04 10:47:24;;;;;;;10.53;9.53;;;;;;;26.39;100.00;98615.75;1723896;82;21074;-61
2021/07/04 10:49:56;;;;;;;13.28;9.30;;;;;;;26.49;100.00;98613.64;1701730;82;21511;-60
2021/07/04 10:52:37;;;;;;;11.33;9.38;;;;;;;26.27;100.00;98604.45;1728175;82;21101;-60
2021/07/04 10:55:09;;;;;;;10.78;9.68;;;;;;;26.16;100.00;98602.20;1720968;82;21077;-60
2021/07/04 10:57:52;;;;;;;13.20;9.43;;;;;;;25.76;100.00;98607.33;1713699;82;21366;-60
2021/07/04 11:00:33;;;;;;;9.35;8.45;;;;;;;25.80;100.00;98602.67;1717933;82;21508;-62
2021/07/04 11:03:06;;;;;;;10.72;8.78;;;;;;;25.90;100.00;98597.09;1716276;82;21082;-61
2021/07/04 11:05:44;;;;;;;9.45;8.50;;;;;;;26.22;100.00;98595.97;1694512;82;21102;-62
2021/07/04 11:08:15;;;;;;;9.13;8.28;;;;;;;26.46;100.00;98598.70;1718320;82;20856;-61
2021/07/04 11:11:00;;;;;;;9.55;8.63;;;;;;;26.71;100.00;98587.86;1724016;82;21050;-61
2021/07/04 11:13:37;;;;;;;12.75;9.38;;;;;;;26.50;100.00;98587.70;1723884;82;20955;-61
2021/07/04 11:16:19;;;;;;;9.18;8.33;;;;;;;26.55;100.00;98585.98;1713450;82;20981;-62
2021/07/04 11:18:56;;;;;;;9.68;7.00;;;;;;;26.78;100.00;98582.17;1720799;82;22761;-62
2021/07/04 11:21:45;;;;;;;11.00;9.90;;;;;;;27.12;100.00;98579.95;1707606;82;20834;-62
2021/07/04 11:24:27;;;;;;;10.18;9.13;;;;;;;27.13;100.00;98581.55;1714239;81;21426;-61
2021/07/04 11:27:24;;;;;;;9.83;8.68;;;;;;;26.54;100.00;98574.01;1683020;83;20988;-63